createdAt,value
2019-02-12T00:01:03.554Z,1.80
2019-02-12T00:03:34.209Z,1.70
2019-02-12T00:06:06.559Z,1.70
2019-02-12T00:08:37.222Z,1.60
2019-02-12T00:11:07.919Z,1.60
2019-02-12T00:13:38.627Z,1.60
2019-02-12T00:16:09.368Z,1.50
2019-02-12T00:18:40.097Z,1.50
2019-02-12T00:21:10.833Z,1.50
2019-02-12T00:23:41.526Z,1.50
2019-02-12T00:26:12.189Z,1.40
2019-02-12T00:28:42.969Z,1.40
2019-02-12T00:31:13.708Z,1.40
2019-02-12T00:33:44.393Z,1.40
2019-02-12T00:36:15.155Z,1.40
2019-02-12T00:38:46.050Z,1.50
2019-02-12T00:41:16.887Z,1.50
2019-02-12T00:43:47.609Z,1.40
2019-02-12T00:46:18.357Z,1.50
2019-02-12T00:48:48.975Z,1.50
2019-02-12T00:51:19.597Z,1.40
2019-02-12T00:53:50.273Z,1.40
2019-02-12T00:56:20.923Z,1.30
2019-02-12T00:58:51.538Z,1.30
2019-02-12T01:01:23.263Z,1.20
2019-02-12T01:03:54.042Z,1.10
2019-02-12T01:06:24.861Z,1.10
2019-02-12T01:08:55.597Z,1.10
2019-02-12T01:11:26.284Z,1.00
2019-02-12T01:13:58.581Z,1.00
2019-02-12T01:16:29.246Z,1.00
2019-02-12T01:18:59.949Z,1.00
2019-02-12T01:21:30.873Z,0.90
2019-02-12T01:24:01.662Z,1.00
2019-02-12T01:26:32.470Z,0.90
2019-02-12T01:29:03.220Z,0.90
2019-02-12T01:31:35.484Z,0.80
2019-02-12T01:34:06.244Z,0.90
2019-02-12T01:36:37.050Z,0.80
2019-02-12T01:39:11.825Z,0.80
2019-02-12T01:41:42.678Z,0.80
2019-02-12T01:44:15.448Z,0.70
2019-02-12T01:46:46.206Z,0.70
2019-02-12T01:49:16.847Z,0.70
2019-02-12T02:10:32.918Z,0.90
2019-02-12T02:13:03.647Z,0.80
2019-02-12T02:15:34.451Z,0.90
2019-02-12T02:18:05.178Z,1.00
2019-02-12T02:20:35.810Z,0.90
2019-02-12T02:23:06.510Z,0.90
2019-02-12T02:25:37.308Z,0.90
2019-02-12T02:28:08.074Z,0.90
2019-02-12T02:30:38.777Z,0.80
2019-02-12T02:33:09.584Z,0.70
2019-02-12T02:35:42.012Z,0.70
2019-02-12T02:38:12.767Z,0.70
2019-02-12T02:40:43.524Z,0.60
2019-02-12T02:43:14.264Z,0.60
2019-02-12T02:45:45.069Z,0.60
2019-02-12T02:48:15.840Z,0.60
2019-02-12T02:50:46.578Z,0.50
2019-02-12T02:53:17.346Z,0.50
2019-02-12T02:55:48.129Z,0.50
2019-02-12T02:58:18.897Z,0.50
2019-02-12T03:00:49.543Z,0.50
2019-02-12T03:03:21.359Z,0.50
2019-02-12T03:05:52.019Z,0.50
2019-02-12T03:08:22.944Z,0.50
2019-02-12T03:10:54.559Z,0.60
2019-02-12T03:13:25.235Z,0.50
2019-02-12T03:15:56.985Z,0.50
2019-02-12T03:18:27.756Z,0.50
2019-02-12T03:20:58.526Z,0.50
2019-02-12T03:23:29.214Z,0.50
2019-02-12T03:25:59.897Z,0.50
2019-02-12T03:28:30.714Z,0.50
2019-02-12T03:31:01.443Z,0.40
2019-02-12T03:33:32.147Z,0.40
2019-02-12T03:36:02.876Z,0.40
2019-02-12T03:38:33.606Z,0.40
2019-02-12T03:41:04.286Z,0.40
2019-02-12T03:43:34.969Z,0.40
2019-02-12T03:46:05.696Z,0.40
2019-02-12T03:48:36.349Z,0.40
2019-02-12T03:51:07.058Z,0.50
2019-02-12T03:53:37.698Z,0.50
2019-02-12T03:56:09.290Z,0.60
2019-02-12T03:58:40.018Z,0.60
2019-02-12T04:01:10.695Z,0.70
2019-02-12T04:03:41.362Z,0.60
2019-02-12T04:06:12.078Z,0.60
2019-02-12T04:08:42.754Z,0.50
2019-02-12T04:11:13.510Z,0.50
2019-02-12T04:13:44.378Z,0.60
2019-02-12T04:16:15.602Z,0.70
2019-02-12T04:18:46.361Z,0.70
2019-02-12T04:21:17.131Z,0.80
2019-02-12T04:23:47.864Z,0.80
2019-02-12T04:26:20.063Z,0.90
2019-02-12T04:28:50.692Z,0.90
2019-02-12T04:31:21.345Z,0.90
2019-02-12T04:33:52.020Z,0.90
2019-02-12T04:36:23.736Z,1.00
2019-02-12T04:38:54.419Z,1.10
2019-02-12T04:41:25.096Z,1.10
2019-02-12T04:43:56.010Z,1.10
2019-02-12T04:46:26.789Z,1.10
2019-02-12T04:48:57.686Z,1.10
2019-02-12T04:51:28.515Z,1.20
2019-02-12T04:53:59.289Z,1.30
2019-02-12T04:56:30.028Z,1.40
2019-02-12T04:59:00.807Z,1.50
2019-02-12T05:01:31.584Z,1.50
2019-02-12T05:04:02.391Z,1.50
2019-02-12T05:06:33.244Z,1.60
2019-02-12T05:09:15.224Z,1.70
2019-02-12T05:11:57.707Z,1.70
2019-02-12T05:14:28.408Z,1.80
2019-02-12T05:16:59.057Z,1.80
2019-02-12T05:19:29.842Z,1.80
2019-02-12T05:22:00.514Z,1.90
2019-02-12T05:24:31.367Z,1.90
2019-02-12T05:27:02.111Z,2.00
2019-02-12T05:29:32.866Z,2.20
2019-02-12T05:32:03.647Z,2.30
2019-02-12T05:34:34.401Z,2.40
2019-02-12T05:37:05.100Z,2.40
2019-02-12T05:39:36.511Z,2.50
2019-02-12T05:42:07.370Z,2.50
2019-02-12T05:44:38.393Z,2.50
2019-02-12T05:47:09.177Z,2.70
2019-02-12T05:49:41.491Z,2.60
2019-02-12T05:52:14.234Z,2.60
2019-02-12T05:54:45.065Z,2.60
2019-02-12T05:57:15.854Z,2.60
2019-02-12T05:59:47.082Z,2.60
2019-02-12T06:02:18.003Z,2.50
2019-02-12T06:04:48.857Z,2.50
2019-02-12T06:07:19.507Z,2.50
2019-02-12T06:09:50.198Z,2.60
2019-02-12T06:12:20.863Z,2.70
2019-02-12T06:14:53.140Z,2.70
2019-02-12T06:17:23.903Z,2.70
2019-02-12T06:19:54.552Z,2.70
2019-02-12T06:22:25.273Z,2.70
2019-02-12T06:24:56.197Z,2.70
2019-02-12T06:27:27.766Z,2.60
2019-02-12T06:29:58.495Z,2.60
2019-02-12T06:32:29.353Z,2.60
2019-02-12T06:35:00.706Z,2.60
2019-02-12T06:37:31.521Z,2.60
2019-02-12T06:40:03.354Z,2.60
2019-02-12T06:42:35.146Z,2.50
2019-02-12T06:45:06.736Z,2.40
2019-02-12T06:47:37.491Z,2.40
2019-02-12T06:50:09.950Z,2.60
2019-02-12T06:52:40.908Z,2.70
2019-02-12T06:55:14.653Z,2.90
2019-02-12T06:57:45.473Z,3.00
2019-02-12T07:00:16.479Z,3.00
2019-02-12T07:03:13.003Z,3.10
2019-02-12T07:06:13.662Z,3.20
2019-02-12T07:08:54.578Z,3.30
2019-02-12T07:12:03.893Z,3.30
2019-02-12T07:14:49.591Z,3.40
2019-02-12T07:18:00.845Z,3.40
2019-02-12T07:21:13.638Z,3.30
2019-02-12T07:24:15.110Z,3.30
2019-02-12T07:27:26.817Z,3.30
2019-02-12T07:30:49.110Z,3.20
2019-02-12T07:33:48.819Z,3.20
2019-02-12T07:37:04.821Z,3.10
2019-02-12T07:39:54.973Z,3.10
2019-02-12T07:42:38.802Z,3.10
2019-02-12T07:45:46.270Z,3.10
2019-02-12T07:48:57.185Z,3.10
2019-02-12T07:51:41.363Z,3.10
2019-02-12T07:54:46.736Z,3.20
2019-02-12T07:58:06.619Z,3.20
2019-02-12T08:00:58.229Z,3.20
2019-02-12T08:04:07.573Z,3.30
2019-02-12T08:06:52.845Z,3.40
2019-02-12T08:09:51.618Z,3.50
2019-02-12T08:13:18.376Z,3.50
2019-02-12T08:16:37.740Z,3.60
2019-02-12T08:19:30.486Z,3.70
2019-02-12T08:22:37.747Z,3.70
2019-02-12T08:25:32.302Z,3.70
2019-02-12T08:29:02.205Z,3.80
2019-02-12T08:31:56.284Z,3.80
2019-02-12T08:35:04.091Z,3.80
2019-02-12T08:38:06.002Z,3.90
2019-02-12T08:41:12.363Z,4.00
2019-02-12T08:44:09.606Z,4.10
2019-02-12T08:47:20.722Z,4.10
2019-02-12T08:50:00.566Z,4.20
2019-02-12T08:52:55.917Z,4.10
2019-02-12T08:56:10.056Z,4.20
2019-02-12T08:58:50.928Z,4.20
2019-02-12T09:02:03.111Z,4.30
2019-02-12T09:04:41.742Z,4.30
2019-02-12T09:07:39.203Z,4.40
2019-02-12T09:10:44.771Z,4.40
2019-02-12T09:13:41.247Z,4.40
2019-02-12T09:17:17.194Z,4.50
2019-02-12T09:20:46.651Z,4.50
2019-02-12T09:24:01.452Z,4.50
2019-02-12T09:27:25.154Z,4.60
2019-02-12T09:30:31.101Z,4.80
2019-02-12T09:33:47.158Z,4.90
2019-02-12T09:37:02.014Z,5.10
2019-02-12T09:40:20.231Z,5.10
2019-02-12T09:43:32.060Z,5.20
2019-02-12T09:46:44.787Z,5.30
2019-02-12T09:49:59.690Z,5.40
2019-02-12T09:53:04.300Z,5.50
2019-02-12T09:56:08.849Z,5.50
2019-02-12T09:59:07.356Z,5.60
2019-02-12T10:01:56.250Z,5.70
2019-02-12T10:04:41.233Z,5.70
2019-02-12T10:07:29.243Z,5.70
2019-02-12T10:10:39.822Z,5.80
2019-02-12T10:13:32.888Z,5.90
2019-02-12T10:16:33.106Z,6.00
2019-02-12T10:19:45.813Z,6.10
2019-02-12T10:22:39.656Z,6.20
2019-02-12T10:25:19.673Z,6.40
2019-02-12T10:28:31.502Z,6.50
2019-02-12T10:31:22.946Z,6.70
2019-02-12T10:33:53.712Z,6.80
2019-02-12T10:36:24.426Z,7.00
2019-02-12T10:38:55.071Z,7.20
2019-02-12T10:41:25.829Z,7.30
2019-02-12T10:43:58.092Z,7.50
2019-02-12T10:46:28.828Z,7.60
2019-02-12T10:49:00.466Z,7.80
2019-02-12T10:51:31.224Z,7.90
2019-02-12T10:54:01.989Z,8.10
2019-02-12T10:56:32.756Z,8.10
2019-02-12T10:59:03.499Z,8.30
2019-02-12T11:01:34.230Z,8.40
2019-02-12T11:04:04.998Z,8.50
2019-02-12T11:06:35.639Z,8.70
2019-02-12T11:09:06.549Z,8.90
2019-02-12T11:11:37.291Z,9.00
2019-02-12T11:14:07.950Z,9.00
2019-02-12T11:16:38.789Z,9.10
2019-02-12T11:19:09.470Z,9.30
2019-02-12T11:21:40.203Z,9.40
2019-02-12T11:24:10.968Z,9.40
2019-02-12T11:26:41.755Z,9.40
2019-02-12T11:29:12.531Z,9.40
2019-02-12T11:31:43.364Z,9.50
2019-02-12T11:34:14.071Z,9.70
2019-02-12T11:36:44.856Z,9.80
2019-02-12T11:39:15.536Z,10.20
2019-02-12T11:41:46.189Z,10.60
2019-02-12T11:44:17.023Z,10.70
2019-02-12T11:46:47.839Z,10.80
2019-02-12T11:49:20.247Z,11.40
2019-02-12T11:51:51.192Z,12.70
2019-02-12T11:54:23.478Z,13.20
2019-02-12T11:56:54.277Z,13.90
2019-02-12T11:59:24.996Z,14.70
2019-02-12T12:01:55.790Z,14.10
2019-02-12T12:04:28.037Z,13.20
2019-02-12T12:07:00.333Z,12.90
2019-02-12T12:09:31.109Z,13.40
2019-02-12T12:12:01.954Z,13.80
2019-02-12T12:14:32.843Z,14.10
2019-02-12T12:17:04.273Z,13.90
2019-02-12T12:19:34.947Z,14.10
2019-02-12T12:22:05.677Z,13.90
2019-02-12T12:24:36.499Z,13.80
2019-02-12T12:27:07.297Z,13.80
2019-02-12T12:29:38.307Z,13.80
2019-02-12T12:32:09.046Z,14.20
2019-02-12T12:34:39.905Z,14.90
2019-02-12T12:37:10.837Z,15.30
2019-02-12T12:39:41.709Z,15.40
2019-02-12T12:42:12.591Z,15.30
2019-02-12T12:44:43.378Z,15.50
2019-02-12T12:47:14.155Z,15.50
2019-02-12T12:49:44.922Z,15.10
2019-02-12T12:52:16.676Z,14.30
2019-02-12T12:54:49.288Z,14.20
2019-02-12T12:57:19.988Z,14.30
2019-02-12T12:59:50.647Z,14.20
2019-02-12T13:02:21.409Z,14.30
2019-02-12T13:04:52.166Z,14.30
2019-02-12T13:07:22.971Z,14.50
2019-02-12T13:09:53.675Z,14.80
2019-02-12T13:12:24.383Z,15.00
2019-02-12T13:14:55.330Z,15.10
2019-02-12T13:17:26.106Z,15.10
2019-02-12T13:19:56.914Z,14.60
2019-02-12T13:22:27.694Z,15.00
2019-02-12T13:24:58.390Z,16.30
2019-02-12T13:27:30.711Z,16.20
2019-02-12T13:30:01.499Z,15.20
2019-02-12T13:32:32.257Z,14.50
2019-02-12T13:35:02.984Z,14.50
2019-02-12T13:37:33.930Z,14.30
2019-02-12T13:40:05.284Z,14.40
2019-02-12T13:42:39.021Z,14.30
2019-02-12T13:45:12.568Z,14.00
2019-02-12T13:47:43.395Z,14.70
2019-02-12T13:50:14.111Z,15.00
2019-02-12T13:52:44.868Z,15.70
2019-02-12T13:55:17.594Z,15.70
2019-02-12T13:57:48.210Z,15.30
2019-02-12T14:00:18.959Z,15.20
2019-02-12T14:02:49.731Z,15.60
2019-02-12T14:05:20.542Z,15.10
2019-02-12T14:07:52.751Z,14.80
2019-02-12T14:10:23.557Z,14.70
2019-02-12T14:12:54.344Z,14.20
2019-02-12T14:15:25.111Z,13.30
2019-02-12T14:17:56.219Z,12.40
2019-02-12T14:20:27.647Z,11.90
2019-02-12T14:23:00.165Z,11.70
2019-02-12T14:25:37.119Z,11.80
2019-02-12T14:28:10.953Z,11.60
2019-02-12T14:30:41.902Z,11.20
2019-02-12T14:33:13.706Z,10.80
2019-02-12T14:35:44.652Z,10.70
2019-02-12T14:38:15.386Z,10.50
2019-02-12T14:40:46.144Z,10.40
2019-02-12T14:43:16.960Z,10.20
2019-02-12T14:45:47.653Z,10.10
2019-02-12T14:48:18.395Z,10.00
2019-02-12T14:50:49.457Z,10.00
2019-02-12T14:53:20.404Z,9.90
2019-02-12T14:55:51.290Z,9.90
2019-02-12T14:58:21.977Z,9.90
2019-02-12T15:00:52.673Z,9.90
2019-02-12T15:03:23.342Z,9.80
2019-02-12T15:05:54.055Z,9.80
2019-02-12T15:08:24.833Z,9.80
2019-02-12T15:10:55.852Z,9.80
2019-02-12T15:13:28.107Z,9.70
2019-02-12T15:15:58.853Z,9.70
2019-02-12T15:18:29.654Z,9.70
2019-02-12T15:21:00.741Z,9.80
2019-02-12T15:23:31.550Z,9.70
2019-02-12T15:26:03.991Z,9.70
2019-02-12T15:28:34.862Z,9.60
2019-02-12T15:31:07.388Z,9.70
2019-02-12T15:33:39.236Z,9.60
2019-02-12T15:36:10.037Z,9.50
2019-02-12T15:38:42.861Z,9.40
2019-02-12T15:41:13.770Z,9.40
2019-02-12T15:43:44.715Z,9.30
2019-02-12T15:46:16.326Z,9.20
2019-02-12T15:48:47.096Z,9.20
2019-02-12T15:51:18.088Z,9.10
2019-02-12T15:53:50.937Z,9.00
2019-02-12T15:56:21.674Z,9.00
2019-02-12T15:58:53.687Z,8.90
2019-02-12T16:01:26.226Z,8.90
2019-02-12T16:03:58.274Z,8.90
2019-02-12T16:06:29.466Z,8.80
2019-02-12T16:09:01.093Z,8.70
2019-02-12T16:11:31.755Z,8.70
2019-02-12T16:14:02.782Z,8.60
2019-02-12T16:16:33.541Z,8.60
2019-02-12T16:19:25.480Z,8.50
2019-02-12T16:22:08.266Z,8.40
2019-02-12T16:24:51.046Z,8.30
2019-02-12T16:27:34.778Z,8.20
2019-02-12T16:30:17.190Z,8.20
2019-02-12T16:33:01.167Z,8.10
2019-02-12T16:35:45.289Z,8.00
2019-02-12T16:38:27.483Z,8.00
2019-02-12T16:41:09.995Z,7.90
2019-02-12T16:43:52.932Z,7.80
2019-02-12T16:49:38.804Z,7.70
2019-02-12T16:52:21.278Z,7.60
2019-02-12T16:55:04.194Z,7.60
2019-02-12T16:57:46.728Z,7.60
2019-02-12T17:00:29.622Z,7.50
2019-02-12T17:03:11.707Z,7.40
2019-02-12T17:05:54.207Z,7.40
2019-02-12T17:08:36.807Z,7.30
2019-02-12T17:11:20.062Z,7.30
2019-02-12T17:14:03.049Z,7.20
2019-02-12T17:16:45.210Z,7.30
2019-02-12T17:19:27.741Z,7.30
2019-02-12T17:22:10.075Z,7.20
2019-02-12T17:24:52.440Z,7.30
2019-02-12T17:27:34.969Z,7.20
2019-02-12T17:30:17.794Z,7.20
2019-02-12T17:32:59.963Z,7.20
2019-02-12T17:35:42.228Z,7.10
2019-02-12T17:38:26.039Z,7.10
2019-02-12T17:40:56.885Z,7.10
2019-02-12T17:43:39.531Z,7.10
2019-02-12T17:46:23.367Z,7.10
2019-02-12T17:49:23.271Z,7.10
2019-02-12T17:52:07.140Z,7.10
2019-02-12T17:58:12.758Z,7.10
2019-02-12T18:00:55.440Z,7.10
2019-02-12T18:03:38.923Z,7.10
2019-02-12T18:06:21.610Z,7.00
2019-02-12T18:09:05.034Z,7.00
2019-02-12T18:11:48.188Z,7.00
2019-02-12T18:14:32.459Z,7.10
2019-02-12T18:17:14.829Z,7.10
2019-02-12T18:19:57.447Z,7.10
2019-02-12T18:22:40.330Z,7.10
2019-02-12T18:25:23.734Z,7.00
2019-02-12T18:28:07.226Z,7.00
2019-02-12T18:30:49.999Z,7.00
2019-02-12T18:33:32.315Z,6.90
2019-02-12T18:36:15.115Z,6.80
2019-02-12T18:38:57.567Z,6.80
2019-02-12T18:41:39.796Z,6.80
2019-02-12T18:44:22.169Z,6.80
2019-02-12T18:47:04.740Z,6.80
2019-02-12T18:49:47.462Z,6.80
2019-02-12T18:52:30.088Z,6.80
2019-02-12T18:55:12.457Z,6.80
2019-02-12T18:57:55.419Z,6.70
2019-02-12T19:00:48.678Z,6.70
2019-02-12T19:03:31.358Z,6.70
2019-02-12T19:06:13.987Z,6.60
2019-02-12T19:08:56.716Z,6.70
2019-02-12T19:11:45.910Z,6.60
2019-02-12T19:14:24.066Z,6.60
2019-02-12T19:17:06.906Z,6.50
2019-02-12T19:19:49.743Z,6.50
2019-02-12T19:22:32.763Z,6.50
2019-02-12T19:25:15.135Z,6.50
2019-02-12T19:27:57.523Z,6.40
2019-02-12T19:30:40.254Z,6.40
2019-02-12T19:33:22.934Z,6.40
2019-02-12T19:36:05.137Z,6.30
2019-02-12T19:38:36.105Z,6.30
2019-02-12T19:41:18.753Z,6.30
2019-02-12T19:54:17.266Z,6.50
2019-02-12T19:56:59.627Z,6.40
2019-02-12T19:59:42.511Z,6.50
2019-02-12T20:02:24.983Z,6.50
2019-02-12T20:05:07.551Z,6.40
2019-02-12T20:07:50.758Z,6.40
2019-02-12T20:10:32.987Z,6.30
2019-02-12T20:13:17.698Z,6.30
2019-02-12T20:16:00.149Z,6.30
2019-02-12T20:21:57.970Z,6.30
2019-02-12T20:24:40.973Z,6.20
2019-02-12T20:27:23.813Z,6.20
2019-02-12T20:30:06.361Z,6.20
2019-02-12T20:32:48.855Z,6.20
2019-02-12T20:35:36.368Z,6.20
2019-02-12T20:38:16.120Z,6.20
2019-02-12T20:40:58.647Z,6.20
2019-02-12T20:43:41.509Z,6.20
2019-02-12T20:46:23.846Z,6.20
2019-02-12T20:49:06.338Z,6.10
2019-02-12T20:51:48.911Z,6.10
2019-02-12T20:54:31.319Z,6.00
2019-02-12T20:57:15.372Z,6.00
2019-02-12T20:59:58.254Z,5.90
2019-02-12T21:02:41.652Z,5.90
2019-02-12T21:05:24.430Z,5.80
2019-02-12T21:08:06.746Z,5.80
2019-02-12T21:10:49.416Z,5.70
2019-02-12T21:13:31.391Z,5.80
2019-02-12T21:16:13.947Z,5.80
2019-02-12T21:18:56.692Z,5.80
2019-02-12T21:21:43.165Z,5.80
2019-02-12T21:24:26.355Z,5.80
2019-02-12T21:27:08.360Z,5.90
2019-02-12T21:29:50.737Z,5.90
2019-02-12T21:32:32.963Z,5.90
2019-02-12T21:35:15.571Z,5.90
2019-02-12T21:37:58.809Z,5.90
2019-02-12T21:40:41.391Z,5.90
2019-02-12T21:43:24.004Z,5.90
2019-02-12T21:46:06.357Z,5.80
2019-02-12T21:48:49.138Z,5.80
2019-02-12T21:51:32.046Z,5.80
2019-02-12T21:54:14.447Z,5.70
2019-02-12T21:56:57.821Z,5.70
2019-02-12T21:59:40.402Z,5.80
2019-02-12T22:02:23.070Z,5.70
2019-02-12T22:05:05.978Z,5.70
2019-02-12T22:07:49.474Z,5.70
2019-02-12T22:10:33.405Z,5.70
2019-02-12T22:13:15.742Z,5.70
2019-02-12T22:15:57.865Z,5.70
2019-02-12T22:18:40.062Z,5.70
2019-02-12T22:21:22.726Z,5.60
2019-02-12T22:24:05.623Z,5.60
2019-02-12T22:26:48.338Z,5.60
2019-02-12T22:29:30.519Z,5.60
2019-02-12T22:32:13.926Z,5.60
2019-02-12T22:34:56.699Z,5.60
2019-02-12T22:37:39.873Z,5.60
2019-02-12T22:40:22.743Z,5.60
2019-02-12T22:43:05.465Z,5.60
2019-02-12T22:45:47.733Z,5.60
2019-02-12T22:48:32.283Z,5.60
2019-02-12T22:51:14.483Z,5.60
2019-02-12T22:53:58.090Z,5.70
2019-02-12T22:56:40.549Z,5.70
2019-02-12T22:59:25.839Z,5.70
2019-02-12T23:02:08.983Z,5.70
2019-02-12T23:04:51.234Z,5.70
2019-02-12T23:07:34.103Z,5.70
2019-02-12T23:10:16.750Z,5.70
2019-02-12T23:12:59.031Z,5.70
2019-02-12T23:15:41.854Z,5.70
2019-02-12T23:18:24.055Z,5.80
2019-02-12T23:21:06.698Z,5.80
2019-02-12T23:23:48.902Z,5.90
2019-02-12T23:26:31.793Z,5.90
2019-02-12T23:29:13.938Z,5.90
2019-02-12T23:31:56.410Z,5.90
2019-02-12T23:34:38.950Z,5.90
2019-02-12T23:37:21.609Z,5.90
2019-02-12T23:40:03.847Z,6.00
2019-02-12T23:42:46.719Z,5.90
2019-02-12T23:45:28.690Z,6.00
2019-02-12T23:48:11.797Z,6.00
2019-02-12T23:50:53.951Z,6.00
2019-02-12T23:53:36.753Z,6.10
2019-02-12T23:56:19.154Z,6.10
2019-02-12T23:59:01.460Z,6.00
